sensor_id;sensor_type;location;lat;lon;timestamp;pressure;altitude;pressure_sealevel;temperature;humidity
54910;BME280;63189;51.240;9.964;2023-05-21T00:02:14;98008.72;;;12.59;100.00
54910;BME280;63189;51.240;9.964;2023-05-21T00:04:42;98015.81;;;12.56;100.00
54910;BME280;63189;51.240;9.964;2023-05-21T00:07:08;98012.53;;;12.51;100.00
54910;BME280;63189;51.240;9.964;2023-05-21T00:09:34;98009.09;;;12.49;100.00
54910;BME280;63189;51.240;9.964;2023-05-21T00:12:05;98006.69;;;12.44;100.00
54910;BME280;63189;51.240;9.964;2023-05-21T00:14:31;98012.03;;;12.41;100.00
54910;BME280;63189;51.240;9.964;2023-05-21T00:16:56;98003.44;;;12.37;100.00
54910;BME280;63189;51.240;9.964;2023-05-21T00:19:21;98004.34;;;12.36;100.00
54910;BME280;63189;51.240;9.964;2023-05-21T00:21:46;97998.25;;;12.36;100.00
54910;BME280;63189;51.240;9.964;2023-05-21T00:24:12;97998.31;;;12.34;100.00
54910;BME280;63189;51.240;9.964;2023-05-21T00:26:37;97987.94;;;12.33;100.00
54910;BME280;63189;51.240;9.964;2023-05-21T00:29:03;97987.06;;;12.32;100.00
54910;BME280;63189;51.240;9.964;2023-05-21T00:31:30;97992.38;;;12.31;100.00
54910;BME280;63189;51.240;9.964;2023-05-21T00:33:56;97981.16;;;12.27;100.00
54910;BME280;63189;51.240;9.964;2023-05-21T00:36:21;97975.13;;;12.25;100.00
54910;BME280;63189;51.240;9.964;2023-05-21T00:38:49;97979.44;;;12.26;100.00
54910;BME280;63189;51.240;9.964;2023-05-21T00:41:15;97976.88;;;12.25;100.00
54910;BME280;63189;51.240;9.964;2023-05-21T00:43:40;97967.47;;;12.21;100.00
54910;BME280;63189;51.240;9.964;2023-05-21T00:46:13;97967.63;;;12.16;100.00
54910;BME280;63189;51.240;9.964;2023-05-21T00:48:42;97963.31;;;12.15;100.00
54910;BME280;63189;51.240;9.964;2023-05-21T00:51:08;97967.63;;;12.16;100.00
54910;BME280;63189;51.240;9.964;2023-05-21T00:53:33;97960.69;;;12.15;100.00
54910;BME280;63189;51.240;9.964;2023-05-21T00:56:00;97961.59;;;12.14;100.00
54910;BME280;63189;51.240;9.964;2023-05-21T00:58:26;97965.91;;;12.15;100.00
54910;BME280;63189;51.240;9.964;2023-05-21T01:00:51;97948.66;;;12.11;100.00
54910;BME280;63189;51.240;9.964;2023-05-21T01:03:21;97956.56;;;12.09;100.00
54910;BME280;63189;51.240;9.964;2023-05-21T01:05:49;97958.47;;;12.04;100.00
54910;BME280;63189;51.240;9.964;2023-05-21T01:08:15;97955.78;;;12.06;100.00
54910;BME280;63189;51.240;9.964;2023-05-21T01:10:41;97953.31;;;12.03;100.00
54910;BME280;63189;51.240;9.964;2023-05-21T01:13:07;97962.06;;;12.02;100.00
54910;BME280;63189;51.240;9.964;2023-05-21T01:15:32;97964.78;;;11.99;100.00
54910;BME280;63189;51.240;9.964;2023-05-21T01:17:58;97954.34;;;11.99;100.00
54910;BME280;63189;51.240;9.964;2023-05-21T01:20:23;97957.81;;;11.98;100.00
54910;BME280;63189;51.240;9.964;2023-05-21T01:22:51;97948.34;;;11.95;100.00
54910;BME280;63189;51.240;9.964;2023-05-21T01:25:17;97947.38;;;11.98;100.00
54910;BME280;63189;51.240;9.964;2023-05-21T01:27:42;97946.56;;;11.96;100.00
54910;BME280;63189;51.240;9.964;2023-05-21T01:30:08;97939.72;;;11.93;100.00
54910;BME280;63189;51.240;9.964;2023-05-21T01:32:39;97950.94;;;11.95;100.00
54910;BME280;63189;51.240;9.964;2023-05-21T01:35:12;97946.63;;;11.94;100.00
54910;BME280;63189;51.240;9.964;2023-05-21T01:37:58;97942.31;;;11.93;100.00
54910;BME280;63189;51.240;9.964;2023-05-21T01:40:33;97943.25;;;11.92;100.00
54910;BME280;63189;51.240;9.964;2023-05-21T01:43:00;97941.53;;;11.91;100.00
54910;BME280;63189;51.240;9.964;2023-05-21T01:45:28;97937.28;;;11.89;100.00
54910;BME280;63189;51.240;9.964;2023-05-21T01:47:55;97939.97;;;11.85;100.00
54910;BME280;63189;51.240;9.964;2023-05-21T01:50:22;97928.63;;;11.87;100.00
54910;BME280;63189;51.240;9.964;2023-05-21T01:52:54;97933.91;;;11.85;100.00
54910;BME280;63189;51.240;9.964;2023-05-21T01:55:21;97941.69;;;11.87;100.00
54910;BME280;63189;51.240;9.964;2023-05-21T01:57:52;97932.19;;;11.84;100.00
54910;BME280;63189;51.240;9.964;2023-05-21T02:00:19;97926.13;;;11.83;100.00
54910;BME280;63189;51.240;9.964;2023-05-21T02:02:45;97930.50;;;11.83;100.00
54910;BME280;63189;51.240;9.964;2023-05-21T02:05:10;97930.56;;;11.81;100.00
54910;BME280;63189;51.240;9.964;2023-05-21T02:07:36;97932.38;;;11.79;100.00
54910;BME280;63189;51.240;9.964;2023-05-21T02:10:02;97927.94;;;11.81;100.00
54910;BME280;63189;51.240;9.964;2023-05-21T02:12:27;97923.63;;;11.80;100.00
54910;BME280;63189;51.240;9.964;2023-05-21T02:14:54;97929.78;;;11.79;100.00
54910;BME280;63189;51.240;9.964;2023-05-21T02:17:21;97928.91;;;11.77;100.00
54910;BME280;63189;51.240;9.964;2023-05-21T02:19:47;97912.63;;;11.71;100.00
54910;BME280;63189;51.240;9.964;2023-05-21T02:22:12;97912.69;;;11.69;100.00
54910;BME280;63189;51.240;9.964;2023-05-21T02:24:37;97911.78;;;11.70;100.00
54910;BME280;63189;51.240;9.964;2023-05-21T02:27:03;97913.47;;;11.71;100.00
54910;BME280;63189;51.240;9.964;2023-05-21T02:29:30;97910.97;;;11.68;100.00
54910;BME280;63189;51.240;9.964;2023-05-21T02:31:56;97915.28;;;11.69;100.00
54910;BME280;63189;51.240;9.964;2023-05-21T02:34:21;97916.22;;;11.67;100.00
54910;BME280;63189;51.240;9.964;2023-05-21T02:36:46;97917.13;;;11.67;100.00
54910;BME280;63189;51.240;9.964;2023-05-21T02:39:13;97917.19;;;11.64;100.00
54910;BME280;63189;51.240;9.964;2023-05-21T02:41:40;97917.19;;;11.64;100.00
54910;BME280;63189;51.240;9.964;2023-05-21T02:44:05;97914.66;;;11.63;100.00
54910;BME280;63189;51.240;9.964;2023-05-21T02:46:30;97912.09;;;11.61;100.00
54910;BME280;63189;51.240;9.964;2023-05-21T02:48:55;97913.91;;;11.59;100.00
54910;BME280;63189;51.240;9.964;2023-05-21T02:51:21;97918.34;;;11.57;100.00
54910;BME280;63189;51.240;9.964;2023-05-21T02:53:47;97921.09;;;11.52;100.00
54910;BME280;63189;51.240;9.964;2023-05-21T02:56:12;97922.06;;;11.50;100.00
54910;BME280;63189;51.240;9.964;2023-05-21T02:58:37;97914.22;;;11.50;100.00
54910;BME280;63189;51.240;9.964;2023-05-21T03:01:03;97917.81;;;11.47;100.00
54910;BME280;63189;51.240;9.964;2023-05-21T03:03:28;97916.00;;;11.49;100.00
54910;BME280;63189;51.240;9.964;2023-05-21T03:05:55;97918.59;;;11.49;100.00
54910;BME280;63189;51.240;9.964;2023-05-21T03:08:22;97914.34;;;11.47;100.00
54910;BME280;63189;51.240;9.964;2023-05-21T03:10:54;97906.72;;;11.41;100.00
54910;BME280;63189;51.240;9.964;2023-05-21T03:13:20;97908.34;;;11.43;100.00
54910;BME280;63189;51.240;9.964;2023-05-21T03:15:45;97914.34;;;11.47;100.00
54910;BME280;63189;51.240;9.964;2023-05-21T03:18:11;97911.75;;;11.45;100.00
54910;BME280;63189;51.240;9.964;2023-05-21T03:20:37;97909.13;;;11.47;100.00
54910;BME280;63189;51.240;9.964;2023-05-21T03:23:08;97910.91;;;11.45;100.00
54910;BME280;63189;51.240;9.964;2023-05-21T03:25:33;97910.13;;;11.43;100.00
54910;BME280;63189;51.240;9.964;2023-05-21T03:27:58;97899.69;;;11.43;100.00
54910;BME280;63189;51.240;9.964;2023-05-21T03:30:23;97905.75;;;11.43;100.00
54910;BME280;63189;51.240;9.964;2023-05-21T03:32:49;97910.19;;;11.41;100.00
54910;BME280;63189;51.240;9.964;2023-05-21T03:35:15;97907.50;;;11.43;100.00
54910;BME280;63189;51.240;9.964;2023-05-21T03:37:40;97911.16;;;11.39;100.00
54910;BME280;63189;51.240;9.964;2023-05-21T03:40:06;97912.84;;;11.40;100.00
54910;BME280;63189;51.240;9.964;2023-05-21T03:42:32;97912.72;;;11.43;100.00
54910;BME280;63189;51.240;9.964;2023-05-21T03:44:57;97911.75;;;11.45;100.00
54910;BME280;63189;51.240;9.964;2023-05-21T03:47:22;97918.53;;;11.51;100.00
54910;BME280;63189;51.240;9.964;2023-05-21T03:49:48;97915.81;;;11.54;100.00
54910;BME280;63189;51.240;9.964;2023-05-21T03:52:13;97919.34;;;11.53;100.00
54910;BME280;63189;51.240;9.964;2023-05-21T03:54:38;97915.81;;;11.54;100.00
54910;BME280;63189;51.240;9.964;2023-05-21T03:57:04;97910.84;;;11.48;100.00
54910;BME280;63189;51.240;9.964;2023-05-21T03:59:29;97910.72;;;11.51;100.00
54910;BME280;63189;51.240;9.964;2023-05-21T04:01:54;97921.16;;;11.51;100.00
54910;BME280;63189;51.240;9.964;2023-05-21T04:04:20;97906.34;;;11.51;100.00
54910;BME280;63189;51.240;9.964;2023-05-21T04:06:45;97921.91;;;11.54;100.00
54910;BME280;63189;51.240;9.964;2023-05-21T04:09:14;97919.22;;;11.56;100.00
54910;BME280;63189;51.240;9.964;2023-05-21T04:11:40;97918.28;;;11.59;100.00
54910;BME280;63189;51.240;9.964;2023-05-21T04:14:05;97915.63;;;11.60;100.00
54910;BME280;63189;51.240;9.964;2023-05-21T04:16:31;97919.81;;;11.64;100.00
54910;BME280;63189;51.240;9.964;2023-05-21T04:18:58;97910.97;;;11.68;100.00
54910;BME280;63189;51.240;9.964;2023-05-21T04:21:24;97920.41;;;11.72;100.00
54910;BME280;63189;51.240;9.964;2023-05-21T04:23:49;97913.34;;;11.74;100.00
54910;BME280;63189;51.240;9.964;2023-05-21T04:26:14;97910.59;;;11.79;100.00
54910;BME280;63189;51.240;9.964;2023-05-21T04:28:40;97910.56;;;11.80;100.00
54910;BME280;63189;51.240;9.964;2023-05-21T04:31:06;97915.69;;;11.83;100.00
54910;BME280;63189;51.240;9.964;2023-05-21T04:33:32;97908.63;;;11.85;100.00
54910;BME280;63189;51.240;9.964;2023-05-21T04:36:00;97904.09;;;11.91;100.00
54910;BME280;63189;51.240;9.964;2023-05-21T04:38:27;97906.53;;;11.95;100.00
54910;BME280;63189;51.240;9.964;2023-05-21T04:40:53;97901.19;;;11.98;100.00
54910;BME280;63189;51.240;9.964;2023-05-21T04:43:19;97907.19;;;12.02;100.00
54910;BME280;63189;51.240;9.964;2023-05-21T04:45:51;97902.69;;;12.05;100.00
54910;BME280;63189;51.240;9.964;2023-05-21T04:48:16;97908.59;;;12.10;100.00
54910;BME280;63189;51.240;9.964;2023-05-21T04:50:42;97913.63;;;12.15;100.00
54910;BME280;63189;51.240;9.964;2023-05-21T04:53:08;97909.13;;;12.19;100.00
54910;BME280;63189;51.240;9.964;2023-05-21T04:55:34;97903.75;;;12.23;100.00
54910;BME280;63189;51.240;9.964;2023-05-21T04:58:06;97905.28;;;12.29;100.00
54910;BME280;63189;51.240;9.964;2023-05-21T05:00:32;97910.28;;;12.35;100.00
54910;BME280;63189;51.240;9.964;2023-05-21T05:02:58;97903.16;;;12.38;100.00
54910;BME280;63189;51.240;9.964;2023-05-21T05:05:24;97904.69;;;12.44;100.00
54910;BME280;63189;51.240;9.964;2023-05-21T05:07:49;97919.19;;;12.53;100.00
54910;BME280;63189;51.240;9.964;2023-05-21T05:10:15;97912.00;;;12.58;100.00
54910;BME280;63189;51.240;9.964;2023-05-21T05:12:40;97913.53;;;12.63;100.00
54910;BME280;63189;51.240;9.964;2023-05-21T05:15:06;97919.41;;;12.68;100.00
54910;BME280;63189;51.240;9.964;2023-05-21T05:17:32;97906.25;;;12.71;100.00
54910;BME280;63189;51.240;9.964;2023-05-21T05:19:58;97925.16;;;12.78;100.00
54910;BME280;63189;51.240;9.964;2023-05-21T05:22:23;97916.28;;;12.82;100.00
54910;BME280;63189;51.240;9.964;2023-05-21T05:24:49;97917.72;;;12.89;100.00
54910;BME280;63189;51.240;9.964;2023-05-21T05:27:15;97923.56;;;12.96;100.00
54910;BME280;63189;51.240;9.964;2023-05-21T05:29:42;97914.50;;;13.05;100.00
54910;BME280;63189;51.240;9.964;2023-05-21T05:32:07;97924.38;;;13.18;100.00
54910;BME280;63189;51.240;9.964;2023-05-21T05:34:33;97915.47;;;13.24;100.00
54910;BME280;63189;51.240;9.964;2023-05-21T05:36:58;97918.53;;;13.34;100.00
54910;BME280;63189;51.240;9.964;2023-05-21T05:39:23;97914.81;;;13.39;100.00
54910;BME280;63189;51.240;9.964;2023-05-21T05:41:49;97906.72;;;13.45;100.00
54910;BME280;63189;51.240;9.964;2023-05-21T05:44:14;97912.25;;;13.58;100.00
54910;BME280;63189;51.240;9.964;2023-05-21T05:46:40;97912.72;;;13.68;100.00
54910;BME280;63189;51.240;9.964;2023-05-21T05:49:05;97911.25;;;13.81;100.00
54910;BME280;63189;51.240;9.964;2023-05-21T05:51:31;97914.31;;;13.91;100.00
54910;BME280;63189;51.240;9.964;2023-05-21T05:53:56;97903.50;;;13.98;100.00
54910;BME280;63189;51.240;9.964;2023-05-21T05:56:21;97904.22;;;14.02;100.00
54910;BME280;63189;51.240;9.964;2023-05-21T05:58:46;97907.41;;;14.08;100.00
54910;BME280;63189;51.240;9.964;2023-05-21T06:01:12;97906.19;;;14.15;100.00
54910;BME280;63189;51.240;9.964;2023-05-21T06:03:37;97915.22;;;14.29;100.00
54910;BME280;63189;51.240;9.964;2023-05-21T06:06:03;97913.81;;;14.40;100.00
54910;BME280;63189;51.240;9.964;2023-05-21T06:08:28;97911.72;;;14.49;100.00
54910;BME280;63189;51.240;9.964;2023-05-21T06:10:53;97913.94;;;14.56;100.00
54910;BME280;63189;51.240;9.964;2023-05-21T06:13:18;97914.59;;;14.61;100.00
54910;BME280;63189;51.240;9.964;2023-05-21T06:15:44;97912.59;;;14.66;100.00
54910;BME280;63189;51.240;9.964;2023-05-21T06:18:09;97911.38;;;14.73;100.00
54910;BME280;63189;51.240;9.964;2023-05-21T06:20:35;97917.91;;;14.84;100.00
54910;BME280;63189;51.240;9.964;2023-05-21T06:23:01;97916.38;;;14.97;100.00
54910;BME280;63189;51.240;9.964;2023-05-21T06:25:26;97922.66;;;15.12;100.00
54910;BME280;63189;51.240;9.964;2023-05-21T06:27:51;97917.19;;;15.16;100.00
54910;BME280;63189;51.240;9.964;2023-05-21T06:30:17;97918.88;;;15.17;100.00
54910;BME280;63189;51.240;9.964;2023-05-21T06:32:42;97917.94;;;15.18;100.00
54910;BME280;63189;51.240;9.964;2023-05-21T06:35:08;97917.25;;;15.15;100.00
54910;BME280;63189;51.240;9.964;2023-05-21T06:37:33;97906.75;;;15.15;100.00
54910;BME280;63189;51.240;9.964;2023-05-21T06:39:58;97915.31;;;15.18;100.00
54910;BME280;63189;51.240;9.964;2023-05-21T06:42:24;97909.00;;;15.22;100.00
54910;BME280;63189;51.240;9.964;2023-05-21T06:44:49;97920.19;;;15.26;100.00
54910;BME280;63189;51.240;9.964;2023-05-21T06:47:15;97911.31;;;15.28;100.00
54910;BME280;63189;51.240;9.964;2023-05-21T06:49:40;97911.94;;;15.34;100.00
54910;BME280;63189;51.240;9.964;2023-05-21T06:52:05;97904.91;;;15.34;100.00
54910;BME280;63189;51.240;9.964;2023-05-21T06:54:31;97912.38;;;15.42;100.00
54910;BME280;63189;51.240;9.964;2023-05-21T06:56:57;97917.34;;;15.48;100.00
54910;BME280;63189;51.240;9.964;2023-05-21T06:59:22;97917.81;;;15.56;100.00
54910;BME280;63189;51.240;9.964;2023-05-21T07:01:47;97908.72;;;15.63;100.00
54910;BME280;63189;51.240;9.964;2023-05-21T07:04:12;97915.16;;;15.73;100.00
54910;BME280;63189;51.240;9.964;2023-05-21T07:06:38;97915.53;;;15.83;100.00
54910;BME280;63189;51.240;9.964;2023-05-21T07:09:03;97917.78;;;15.91;100.00
54910;BME280;63189;51.240;9.964;2023-05-21T07:11:30;97908.31;;;16.04;100.00
54910;BME280;63189;51.240;9.964;2023-05-21T07:13:57;97913.78;;;16.16;100.00
54910;BME280;63189;51.240;9.964;2023-05-21T07:16:24;97910.81;;;16.23;100.00
54910;BME280;63189;51.240;9.964;2023-05-21T07:18:50;97912.09;;;16.31;100.00
54910;BME280;63189;51.240;9.964;2023-05-21T07:21:15;97913.22;;;16.43;100.00
54910;BME280;63189;51.240;9.964;2023-05-21T07:23:40;97906.78;;;16.49;100.00
54910;BME280;63189;51.240;9.964;2023-05-21T07:26:06;97910.00;;;16.54;100.00
54910;BME280;63189;51.240;9.964;2023-05-21T07:28:31;97903.63;;;16.58;100.00
54910;BME280;63189;51.240;9.964;2023-05-21T07:30:56;97902.34;;;16.65;100.00
54910;BME280;63189;51.240;9.964;2023-05-21T07:33:22;97907.41;;;16.69;100.00
54910;BME280;63189;51.240;9.964;2023-05-21T07:35:47;97908.81;;;16.75;100.00
54910;BME280;63189;51.240;9.964;2023-05-21T07:38:13;97909.25;;;16.83;100.00
54910;BME280;63189;51.240;9.964;2023-05-21T07:40:39;97906.69;;;16.97;100.00
54910;BME280;63189;51.240;9.964;2023-05-21T07:43:05;97905.59;;;17.01;100.00
54910;BME280;63189;51.240;9.964;2023-05-21T07:45:30;97905.16;;;17.09;100.00
54910;BME280;63189;51.240;9.964;2023-05-21T07:47:55;97904.59;;;17.18;100.00
54910;BME280;63189;51.240;9.964;2023-05-21T07:50:21;97906.06;;;17.38;99.02
54910;BME280;63189;51.240;9.964;2023-05-21T07:52:46;97895.53;;;17.38;98.24
54910;BME280;63189;51.240;9.964;2023-05-21T07:55:11;97898.06;;;17.40;99.12
54910;BME280;63189;51.240;9.964;2023-05-21T07:57:37;97895.69;;;17.51;98.34
54910;BME280;63189;51.240;9.964;2023-05-21T08:00:03;97897.25;;;17.83;98.07
54910;BME280;63189;51.240;9.964;2023-05-21T08:02:30;97887.72;;;18.09;96.93
54910;BME280;63189;51.240;9.964;2023-05-21T08:04:56;97886.03;;;18.37;98.58
54910;BME280;63189;51.240;9.964;2023-05-21T08:07:21;97892.97;;;18.52;95.91
54910;BME280;63189;51.240;9.964;2023-05-21T08:09:47;97893.41;;;18.73;94.74
54910;BME280;63189;51.240;9.964;2023-05-21T08:12:12;97887.75;;;18.79;94.30
54910;BME280;63189;51.240;9.964;2023-05-21T08:14:41;97888.59;;;18.80;91.84
54910;BME280;63189;51.240;9.964;2023-05-21T08:17:08;97889.06;;;18.86;90.42
54910;BME280;63189;51.240;9.964;2023-05-21T08:19:34;97887.59;;;18.95;90.39
54910;BME280;63189;51.240;9.964;2023-05-21T08:22:00;97891.91;;;18.96;89.36
54910;BME280;63189;51.240;9.964;2023-05-21T08:24:25;97891.63;;;19.00;88.86
54910;BME280;63189;51.240;9.964;2023-05-21T08:26:51;97889.09;;;18.99;88.20
54910;BME280;63189;51.240;9.964;2023-05-21T08:29:16;97891.41;;;19.03;89.23
54910;BME280;63189;51.240;9.964;2023-05-21T08:31:41;97893.78;;;19.08;89.12
54910;BME280;63189;51.240;9.964;2023-05-21T08:34:07;97889.44;;;19.07;89.14
54910;BME280;63189;51.240;9.964;2023-05-21T08:36:32;97896.09;;;19.13;90.89
54910;BME280;63189;51.240;9.964;2023-05-21T08:38:57;97889.59;;;19.18;90.38
54910;BME280;63189;51.240;9.964;2023-05-21T08:41:23;97905.00;;;19.12;86.03
54910;BME280;63189;51.240;9.964;2023-05-21T08:43:54;97894.31;;;19.13;86.56
54910;BME280;63189;51.240;9.964;2023-05-21T08:46:22;97886.63;;;19.23;86.96
54910;BME280;63189;51.240;9.964;2023-05-21T08:48:50;97889.00;;;19.40;86.96
54910;BME280;63189;51.240;9.964;2023-05-21T08:51:19;97888.66;;;19.45;87.30
54910;BME280;63189;51.240;9.964;2023-05-21T08:53:45;97892.81;;;19.49;86.79
54910;BME280;63189;51.240;9.964;2023-05-21T08:56:11;97885.63;;;19.51;86.96
54910;BME280;63189;51.240;9.964;2023-05-21T08:58:38;97880.59;;;19.60;86.51
54910;BME280;63189;51.240;9.964;2023-05-21T09:01:06;97884.31;;;19.71;85.34
54910;BME280;63189;51.240;9.964;2023-05-21T09:03:32;97874.34;;;19.74;86.06
54910;BME280;63189;51.240;9.964;2023-05-21T09:05:58;97880.69;;;19.84;85.88
54910;BME280;63189;51.240;9.964;2023-05-21T09:08:31;97891.78;;;19.89;85.01
54910;BME280;63189;51.240;9.964;2023-05-21T09:11:00;97872.00;;;20.08;83.40
54910;BME280;63189;51.240;9.964;2023-05-21T09:13:26;97883.53;;;20.32;83.00
54910;BME280;63189;51.240;9.964;2023-05-21T09:15:53;97879.47;;;20.52;83.78
54910;BME280;63189;51.240;9.964;2023-05-21T09:18:18;97883.31;;;20.72;82.90
54910;BME280;63189;51.240;9.964;2023-05-21T09:20:43;97881.69;;;20.82;81.56
54910;BME280;63189;51.240;9.964;2023-05-21T09:23:09;97879.00;;;20.95;80.90
54910;BME280;63189;51.240;9.964;2023-05-21T09:25:40;97887.19;;;21.16;82.07
54910;BME280;63189;51.240;9.964;2023-05-21T09:28:11;97875.84;;;21.38;80.14
54910;BME280;63189;51.240;9.964;2023-05-21T09:30:43;97873.97;;;21.73;77.67
54910;BME280;63189;51.240;9.964;2023-05-21T09:33:08;97869.91;;;21.92;78.28
54910;BME280;63189;51.240;9.964;2023-05-21T09:35:33;97863.06;;;22.11;78.12
54910;BME280;63189;51.240;9.964;2023-05-21T09:37:59;97868.38;;;22.23;72.44
54910;BME280;63189;51.240;9.964;2023-05-21T09:40:25;97871.75;;;22.36;73.99
54910;BME280;63189;51.240;9.964;2023-05-21T09:42:52;97868.22;;;22.46;72.34
54910;BME280;63189;51.240;9.964;2023-05-21T09:45:19;97874.03;;;22.40;71.57
54910;BME280;63189;51.240;9.964;2023-05-21T09:47:46;97869.09;;;22.36;69.72
54910;BME280;63189;51.240;9.964;2023-05-21T09:50:12;97868.00;;;22.38;70.61
54910;BME280;63189;51.240;9.964;2023-05-21T09:52:38;97869.59;;;22.41;72.31
54910;BME280;63189;51.240;9.964;2023-05-21T09:55:13;97860.03;;;22.38;67.80
54910;BME280;63189;51.240;9.964;2023-05-21T09:57:43;97855.81;;;22.36;69.85
54910;BME280;63189;51.240;9.964;2023-05-21T10:02:49;97862.81;;;22.14;71.37
54910;BME280;63189;51.240;9.964;2023-05-21T10:05:15;97858.09;;;22.18;73.66
54910;BME280;63189;51.240;9.964;2023-05-21T10:07:44;97865.72;;;22.23;69.66
54910;BME280;63189;51.240;9.964;2023-05-21T10:10:13;97864.00;;;22.44;69.26
54910;BME280;63189;51.240;9.964;2023-05-21T10:12:43;97859.78;;;22.53;67.32
54910;BME280;63189;51.240;9.964;2023-05-21T10:15:13;97855.25;;;22.75;70.02
54910;BME280;63189;51.240;9.964;2023-05-21T10:17:39;97848.00;;;22.89;69.64
54910;BME280;63189;51.240;9.964;2023-05-21T10:20:07;97857.25;;;23.06;68.07
54910;BME280;63189;51.240;9.964;2023-05-21T10:22:35;97845.72;;;23.16;68.33
54910;BME280;63189;51.240;9.964;2023-05-21T10:25:01;97847.06;;;23.31;69.19
54910;BME280;63189;51.240;9.964;2023-05-21T10:27:30;97848.25;;;23.39;65.92
54910;BME280;63189;51.240;9.964;2023-05-21T10:29:56;97837.81;;;23.47;66.24
54910;BME280;63189;51.240;9.964;2023-05-21T10:32:25;97838.53;;;23.49;67.03
54910;BME280;63189;51.240;9.964;2023-05-21T10:34:52;97836.31;;;23.54;67.46
54910;BME280;63189;51.240;9.964;2023-05-21T10:37:28;97836.25;;;23.44;61.66
54910;BME280;63189;51.240;9.964;2023-05-21T10:39:54;97834.75;;;23.30;63.01
54910;BME280;63189;51.240;9.964;2023-05-21T10:42:39;97829.91;;;23.36;64.70
54910;BME280;63189;51.240;9.964;2023-05-21T10:45:30;97832.72;;;23.44;65.63
54910;BME280;63189;51.240;9.964;2023-05-21T10:59:04;97826.84;;;23.82;68.33
54910;BME280;63189;51.240;9.964;2023-05-21T11:01:34;97829.63;;;23.80;63.57
54910;BME280;63189;51.240;9.964;2023-05-21T11:04:03;97819.16;;;23.88;61.20
54910;BME280;63189;51.240;9.964;2023-05-21T11:06:29;97828.91;;;23.99;62.26
54910;BME280;63189;51.240;9.964;2023-05-21T11:08:55;97825.28;;;24.10;62.92
54910;BME280;63189;51.240;9.964;2023-05-21T11:14:34;97829.38;;;23.83;57.53
54910;BME280;63189;51.240;9.964;2023-05-21T11:22:29;97818.59;;;24.25;63.90
54910;BME280;63189;51.240;9.964;2023-05-21T11:25:00;97816.44;;;24.40;61.40
54910;BME280;63189;51.240;9.964;2023-05-21T11:29:56;97799.63;;;24.59;58.81
54910;BME280;63189;51.240;9.964;2023-05-21T11:32:22;97812.13;;;24.58;59.43
54910;BME280;63189;51.240;9.964;2023-05-21T11:34:48;97802.28;;;24.59;58.60
54910;BME280;63189;51.240;9.964;2023-05-21T11:39:43;97801.34;;;24.79;59.12
54910;BME280;63189;51.240;9.964;2023-05-21T11:42:09;97799.13;;;24.94;59.55
54910;BME280;63189;51.240;9.964;2023-05-21T11:44:47;97796.44;;;24.94;57.66
54910;BME280;63189;51.240;9.964;2023-05-21T11:47:17;97794.75;;;24.93;57.28
54910;BME280;63189;51.240;9.964;2023-05-21T11:49:43;97791.81;;;24.86;57.07
54910;BME280;63189;51.240;9.964;2023-05-21T11:52:10;97803.16;;;24.88;55.92
54910;BME280;63189;51.240;9.964;2023-05-21T11:54:59;97792.34;;;24.90;57.52
54910;BME280;63189;51.240;9.964;2023-05-21T11:57:26;97800.50;;;24.98;57.79
54910;BME280;63189;51.240;9.964;2023-05-21T11:59:55;97799.69;;;25.07;57.81
54910;BME280;63189;51.240;9.964;2023-05-21T12:02:25;97802.81;;;25.02;55.16
54910;BME280;63189;51.240;9.964;2023-05-21T12:04:53;97784.81;;;25.04;55.86
54910;BME280;63189;51.240;9.964;2023-05-21T12:07:25;97783.81;;;24.96;55.85
54910;BME280;63189;51.240;9.964;2023-05-21T12:09:53;97776.97;;;25.03;56.77
54910;BME280;63189;51.240;9.964;2023-05-21T12:12:21;97786.50;;;25.15;56.53
54910;BME280;63189;51.240;9.964;2023-05-21T12:14:53;97791.13;;;25.13;54.01
54910;BME280;63189;51.240;9.964;2023-05-21T12:17:20;97782.41;;;25.11;54.32
54910;BME280;63189;51.240;9.964;2023-05-21T12:19:46;97791.53;;;25.09;55.18
54910;BME280;63189;51.240;9.964;2023-05-21T12:22:13;97782.31;;;25.03;55.51
54910;BME280;63189;51.240;9.964;2023-05-21T12:24:41;97777.22;;;25.10;55.85
54910;BME280;63189;51.240;9.964;2023-05-21T12:27:08;97781.88;;;25.08;54.34
54910;BME280;63189;51.240;9.964;2023-05-21T12:29:38;97780.47;;;25.03;55.15
54910;BME280;63189;51.240;9.964;2023-05-21T12:32:07;97784.81;;;25.04;55.78
54910;BME280;63189;51.240;9.964;2023-05-21T12:37:21;97796.44;;;24.84;54.83
54910;BME280;63189;51.240;9.964;2023-05-21T12:39:50;97784.50;;;24.88;56.27
54910;BME280;63189;51.240;9.964;2023-05-21T12:42:16;97781.84;;;24.88;57.16
54910;BME280;63189;51.240;9.964;2023-05-21T12:44:48;97778.63;;;24.94;58.04
54910;BME280;63189;51.240;9.964;2023-05-21T12:47:15;97783.28;;;25.02;57.49
54910;BME280;63189;51.240;9.964;2023-05-21T12:49:43;97777.34;;;24.79;56.88
54910;BME280;63189;51.240;9.964;2023-05-21T12:52:11;97768.50;;;24.79;57.56
54910;BME280;63189;51.240;9.964;2023-05-21T12:54:38;97780.84;;;24.89;59.04
54910;BME280;63189;51.240;9.964;2023-05-21T13:02:15;97778.59;;;24.75;56.20
54910;BME280;63189;51.240;9.964;2023-05-21T13:04:41;97767.94;;;24.75;56.40
54910;BME280;63189;51.240;9.964;2023-05-21T13:07:06;97778.59;;;24.65;57.58
54910;BME280;63189;51.240;9.964;2023-05-21T13:09:31;97771.59;;;24.64;56.23
54910;BME280;63189;51.240;9.964;2023-05-21T13:11:57;97768.78;;;24.66;57.06
54910;BME280;63189;51.240;9.964;2023-05-21T13:14:22;97774.41;;;24.63;57.24
54910;BME280;63189;51.240;9.964;2023-05-21T13:16:47;97767.53;;;24.60;56.63
54910;BME280;63189;51.240;9.964;2023-05-21T13:19:13;97764.28;;;24.66;57.35
54910;BME280;63189;51.240;9.964;2023-05-21T13:21:39;97767.09;;;24.65;57.27
54910;BME280;63189;51.240;9.964;2023-05-21T13:24:05;97759.78;;;24.67;57.19
54910;BME280;63189;51.240;9.964;2023-05-21T13:26:31;97764.56;;;24.63;57.01
54910;BME280;63189;51.240;9.964;2023-05-21T13:28:57;97759.38;;;24.71;58.36